Forli, Italy

5:49 PM CET on December 22, 2014 (GMT +0100)
Forlì SanLeonardo | Change Station
CLOSE
Current Station
Personal Weather Station
Location: Forli, EMILIA-ROMAGNA
Elevation: 49 ft
Nearby Weather Stations
Active Advisory: Fog Only on land

Elev 49 ft 44.22 °N, 12.15 °E | Updated 9 minutes ago

Overcast
Overcast
40.1 °F
Feels Like 40 °F
N
0.0
Wind Variable Wind from North
Gusts 0.0 mph

Today
High -- | Low -- °F
--% Chance of Precip.
Yesterday
High -- | Low -- °F
Precip. -- in
7:44 AM 4:36 PM
New Moon, 1% visible
Pressure 30.39 in
Visibility 0.9 miles
Clouds Overcast 300 ft
Windchill 40 °F
Dew Point 40 °F
Humidity 98%
Rainfall 0.00 in
Snow Depth Not available.
UV 0 out of 12
Pollen Not available.
Air Quality Not available.
Flu Activity Not available.
METAR LIPC 221555Z 00000KT 1500 BR OVC003 05/03 Q1029 RMK OVC VIS MIN 1500 WIND THR11 00000KT AMB

More Conditions Fewer Conditions

Pressure 30.39 in
Visibility 0.9 miles
Clouds Overcast 300 ft
Windchill 40 °F
Dew Point 40 °F
Humidity 98%
Rainfall 0.00 in
Snow Depth Not available.
UV 0 out of 12
Pollen Not available.
Air Quality Not available.
Flu Activity Not available.
METAR LIPC 221555Z 00000KT 1500 BR OVC003 05/03 Q1029 RMK OVC VIS MIN 1500 WIND THR11 00000KT AMB

More Conditions Fewer Conditions

10-Day Weather Forecast

Almanac

Astronomy

Dec. 22, 2014 Rise Set
Actual Time
Civil Twilight
Nautical Twilight
Astronomical Twilight
Moon
Length of Visible Light
Length of Day
Tomorrow will be .
, % of the Moon is Illuminated

Today's Extremes

Country Highs Country Lows

Community

WunderPhotos

Upload Photos

1,779,641 photos uploaded!

WunderBlogs® & News

Nearby

Air Quality

  Air Quality AQ Index Pollutant
Not available.

Snow Depth

Station Depth Elevation

Earthquake Activity

City Distance Mag. Time & Date
Minimum magnitude displayed is 2.5.

Coastal Water Temperatures

Place Temperature

Nearby Weather Stations